Terminal Aerodrome Forecast
Issued by NWS Sterling, VA

Home | Current Version | Previous Version | Text Only | Print | Product List | Glossary On
Versions: 1 2 3 4 5 6 7 8 9 10 11 12 13 14 15 16 17 18 19 20 21 22 23 24 25 26 27 28
000
FTUS41 KLWX 202340
TAFBWI
TAF
KBWI 202340Z 2100/2206 15007KT P6SM FEW045 SCT250
     FM210800 21004KT 3SM -DZ BR BKN015
     FM211000 21004KT 2SM -DZ BR BKN008
     FM211500 22009KT P6SM SCT025 BKN070
     FM211600 22012G20KT P6SM SCT035 BKN070
     FM220100 24006KT P6SM SCT045 BKN130
     FM220300 34008KT P6SM BKN040=

USA.gov is the U.S. government's official web portal to all federal, state and local government web resources and services.